createdAt,value
2018-08-12T00:01:35.413Z,5.80
2018-08-12T00:03:46.322Z,3.67
2018-08-12T00:05:57.126Z,4.93
2018-08-12T00:08:08.091Z,5.90
2018-08-12T00:10:19.160Z,6.13
2018-08-12T00:12:30.282Z,4.10
2018-08-12T00:14:41.372Z,4.53
2018-08-12T00:16:53.448Z,4.60
2018-08-12T00:19:04.337Z,7.13
2018-08-12T00:21:15.540Z,6.43
2018-08-12T00:23:26.547Z,6.97
2018-08-12T00:25:37.460Z,5.13
2018-08-12T00:27:48.531Z,8.77
2018-08-12T00:30:00.220Z,7.10
2018-08-12T00:32:11.344Z,9.60
2018-08-12T00:34:22.429Z,8.27
2018-08-12T00:36:34.605Z,6.80
2018-08-12T00:38:45.443Z,8.17
2018-08-12T00:40:56.280Z,7.63
2018-08-12T00:43:07.062Z,6.37
2018-08-12T00:45:19.279Z,8.90
2018-08-12T00:47:30.323Z,8.10
2018-08-12T00:49:41.301Z,5.47
2018-08-12T00:51:53.322Z,8.80
2018-08-12T00:54:04.437Z,5.60
2018-08-12T00:56:15.383Z,5.97
2018-08-12T00:58:26.035Z,7.50
2018-08-12T01:00:37.436Z,16.67
2018-08-12T01:02:48.439Z,8.63
2018-08-12T01:05:00.045Z,13.10
2018-08-12T01:07:11.125Z,5.60
2018-08-12T01:09:21.641Z,4.60
2018-08-12T01:11:32.649Z,6.00
2018-08-12T01:13:43.676Z,5.70
2018-08-12T01:15:54.628Z,5.90
2018-08-12T01:18:05.712Z,6.93
2018-08-12T01:20:16.874Z,4.83
2018-08-12T01:30:34.255Z,5.47
2018-08-12T01:32:45.439Z,6.60
2018-08-12T01:34:56.602Z,5.60
2018-08-12T01:50:37.569Z,7.07
2018-08-12T01:52:48.806Z,4.77
2018-08-12T01:59:17.524Z,5.57
2018-08-12T02:01:28.725Z,5.30
2018-08-12T02:03:40.417Z,5.17
2018-08-12T02:05:51.441Z,5.50
2018-08-12T02:08:02.622Z,5.47
2018-08-12T02:10:14.156Z,5.33
2018-08-12T02:12:25.245Z,6.90
2018-08-12T02:14:36.358Z,5.33
2018-08-12T02:16:47.730Z,5.80
2018-08-12T02:18:58.997Z,5.47
2018-08-12T02:21:10.197Z,5.07
2018-08-12T02:23:21.405Z,5.50
2018-08-12T02:25:32.919Z,4.90
2018-08-12T02:27:44.186Z,5.20
2018-08-12T02:29:55.511Z,7.27
2018-08-12T02:32:08.423Z,5.57
2018-08-12T02:34:19.875Z,4.77
2018-08-12T02:36:31.096Z,4.63
2018-08-12T02:38:42.272Z,4.97
2018-08-12T02:40:53.484Z,4.50
2018-08-12T02:43:04.667Z,4.83
2018-08-12T02:45:17.248Z,4.07
2018-08-12T02:47:28.429Z,6.50
2018-08-12T02:49:39.863Z,6.37
2018-08-12T02:51:51.439Z,5.07
2018-08-12T02:54:02.617Z,4.13
2018-08-12T02:56:14.035Z,4.90
2018-08-12T02:58:26.502Z,5.03
2018-08-12T03:00:37.669Z,5.83
2018-08-12T03:02:49.224Z,4.47
2018-08-12T03:05:00.617Z,5.00
2018-08-12T03:07:12.025Z,5.87
2018-08-12T03:09:23.549Z,5.90
2018-08-12T03:11:34.837Z,4.83
2018-08-12T03:13:48.263Z,5.50
2018-08-12T03:15:59.570Z,6.13
2018-08-12T03:18:10.789Z,6.13
2018-08-12T03:20:22.092Z,6.50
2018-08-12T03:22:33.170Z,5.40
2018-08-12T03:24:44.461Z,5.47
2018-08-12T03:26:55.863Z,5.80
2018-08-12T03:29:07.329Z,5.63
2018-08-12T03:31:18.720Z,6.93
2018-08-12T03:33:30.097Z,5.67
2018-08-12T03:35:41.454Z,5.60
2018-08-12T03:37:52.652Z,6.00
2018-08-12T03:40:03.927Z,5.97
2018-08-12T03:42:15.176Z,5.97
2018-08-12T03:44:26.468Z,8.37
2018-08-12T03:46:37.806Z,6.20
2018-08-12T03:48:50.792Z,5.90
2018-08-12T03:51:02.062Z,5.17
2018-08-12T03:53:13.250Z,6.20
2018-08-12T03:55:25.802Z,5.00
2018-08-12T03:57:38.472Z,6.20
2018-08-12T03:59:49.517Z,5.93
2018-08-12T04:02:00.623Z,6.70
2018-08-12T04:04:12.091Z,6.07
2018-08-12T04:06:24.039Z,6.33
2018-08-12T04:08:35.077Z,6.93
2018-08-12T04:10:45.882Z,6.13
2018-08-12T04:12:58.716Z,5.70
2018-08-12T04:15:10.480Z,5.97
2018-08-12T04:17:21.731Z,5.67
2018-08-12T04:19:33.713Z,5.87
2018-08-12T04:21:45.001Z,6.17
2018-08-12T04:23:56.101Z,6.27
2018-08-12T04:26:07.433Z,5.00
2018-08-12T04:28:19.135Z,6.00
2018-08-12T04:30:30.572Z,6.00
2018-08-12T04:32:42.114Z,5.70
2018-08-12T04:34:53.326Z,6.03
2018-08-12T04:37:04.605Z,4.83
2018-08-12T04:39:16.896Z,5.60
2018-08-12T04:41:28.298Z,5.93
2018-08-12T04:43:39.798Z,6.40
2018-08-12T04:45:51.118Z,6.10
2018-08-12T04:48:02.691Z,5.37
2018-08-12T04:50:15.332Z,5.30
2018-08-12T04:52:26.789Z,5.23
2018-08-12T04:54:38.093Z,6.10
2018-08-12T04:56:49.627Z,5.90
2018-08-12T04:59:00.809Z,5.00
2018-08-12T05:01:11.955Z,5.10
2018-08-12T05:03:23.302Z,5.13
2018-08-12T05:05:34.370Z,4.40
2018-08-12T05:07:45.695Z,5.30
2018-08-12T05:09:57.022Z,5.20
2018-08-12T05:12:08.629Z,4.73
2018-08-12T05:14:19.758Z,5.20
2018-08-12T05:16:31.045Z,5.60
2018-08-12T05:18:42.226Z,5.53
2018-08-12T05:20:53.726Z,5.93
2018-08-12T05:23:04.743Z,6.20
2018-08-12T05:25:16.239Z,4.30
2018-08-12T05:27:27.384Z,3.53
2018-08-12T05:29:38.429Z,3.50
2018-08-12T05:31:49.754Z,3.77
2018-08-12T05:34:00.935Z,3.80
2018-08-12T05:36:12.458Z,3.20
2018-08-12T05:38:23.546Z,3.47
2018-08-12T05:40:34.673Z,3.40
2018-08-12T05:42:46.091Z,3.87
2018-08-12T05:44:57.274Z,4.50
2018-08-12T05:47:08.521Z,3.80
2018-08-12T05:49:19.584Z,4.53
2018-08-12T05:51:31.347Z,4.27
2018-08-12T05:53:46.325Z,4.27
2018-08-12T05:55:57.771Z,4.53
2018-08-12T05:58:09.008Z,5.17
2018-08-12T06:00:20.256Z,3.90
2018-08-12T06:02:31.287Z,4.13
2018-08-12T06:04:42.821Z,4.40
2018-08-12T06:06:54.422Z,3.70
2018-08-12T06:09:05.786Z,4.50
2018-08-12T06:11:16.918Z,5.13
2018-08-12T06:13:28.336Z,4.30
2018-08-12T06:15:39.619Z,4.83
2018-08-12T06:17:50.895Z,4.20
2018-08-12T06:20:02.211Z,5.27
2018-08-12T06:22:13.504Z,4.53
2018-08-12T06:24:24.633Z,3.87
2018-08-12T06:26:35.624Z,5.07
2018-08-12T06:28:46.768Z,4.90
2018-08-12T06:30:57.999Z,6.17
2018-08-12T06:33:09.178Z,4.90
2018-08-12T06:35:20.122Z,5.70
2018-08-12T06:37:31.457Z,5.30
2018-08-12T06:39:42.853Z,4.90
2018-08-12T06:41:54.095Z,4.90
2018-08-12T06:44:05.556Z,4.80
2018-08-12T06:46:16.712Z,4.80
2018-08-12T06:48:28.054Z,5.40
2018-08-12T06:50:39.175Z,5.13
2018-08-12T06:52:51.899Z,4.90
2018-08-12T06:55:03.182Z,5.23
2018-08-12T06:57:14.391Z,4.83
2018-08-12T06:59:25.498Z,4.60
2018-08-12T07:01:36.783Z,5.77
2018-08-12T07:03:47.898Z,5.07
2018-08-12T07:05:59.008Z,4.50
2018-08-12T07:08:10.583Z,5.70
2018-08-12T07:10:21.898Z,4.90
2018-08-12T07:12:33.166Z,5.00
2018-08-12T07:14:44.496Z,5.03
2018-08-12T07:16:56.066Z,5.07
2018-08-12T07:19:07.142Z,4.73
2018-08-12T07:21:18.269Z,4.90
2018-08-12T07:26:15.355Z,4.60
2018-08-12T07:28:26.590Z,5.80
2018-08-12T07:30:37.595Z,5.33
2018-08-12T07:32:48.869Z,5.23
2018-08-12T07:35:00.188Z,5.30
2018-08-12T07:37:11.470Z,5.10
2018-08-12T07:39:22.754Z,6.67
2018-08-12T07:41:33.791Z,5.37
2018-08-12T07:43:44.925Z,4.97
2018-08-12T07:45:56.153Z,5.37
2018-08-12T07:48:07.390Z,5.07
2018-08-12T07:50:18.634Z,5.07
2018-08-12T07:52:29.646Z,5.87
2018-08-12T07:54:41.057Z,5.80
2018-08-12T07:56:52.134Z,6.70
2018-08-12T07:59:03.277Z,5.37
2018-08-12T08:01:14.473Z,4.77
2018-08-12T08:03:25.669Z,5.47
2018-08-12T08:05:36.900Z,5.00
2018-08-12T08:07:48.209Z,5.10
2018-08-12T08:09:59.495Z,5.80
2018-08-12T08:12:10.739Z,6.00
2018-08-12T08:14:21.949Z,5.30
2018-08-12T08:16:33.311Z,5.00
2018-08-12T08:18:44.582Z,5.47
2018-08-12T08:20:55.778Z,5.70
2018-08-12T08:23:06.954Z,5.80
2018-08-12T08:25:18.342Z,4.57
2018-08-12T08:27:29.568Z,5.03
2018-08-12T08:29:41.040Z,5.70
2018-08-12T08:31:52.280Z,3.77
2018-08-12T08:34:03.681Z,4.03
2018-08-12T08:36:14.892Z,3.80
2018-08-12T08:38:26.520Z,3.23
2018-08-12T08:40:37.848Z,4.17
2018-08-12T08:42:49.365Z,3.97
2018-08-12T08:45:00.675Z,3.77
2018-08-12T08:47:11.646Z,3.80
2018-08-12T08:49:22.684Z,4.80
2018-08-12T08:51:34.125Z,4.00
2018-08-12T08:53:45.476Z,3.67
2018-08-12T08:55:56.786Z,5.03
2018-08-12T08:58:08.397Z,4.50
2018-08-12T09:00:20.043Z,4.30
2018-08-12T09:02:31.199Z,4.23
2018-08-12T09:04:42.528Z,5.23
2018-08-12T09:06:53.662Z,5.40
2018-08-12T09:09:05.287Z,4.87
2018-08-12T09:11:16.799Z,4.83
2018-08-12T09:13:29.024Z,5.73
2018-08-12T09:15:40.213Z,5.80
2018-08-12T09:17:51.753Z,4.67
2018-08-12T09:22:44.352Z,4.60
2018-08-12T09:24:55.430Z,4.70
2018-08-12T09:27:07.558Z,9.53
2018-08-12T09:29:18.624Z,5.67
2018-08-12T09:31:29.645Z,5.17
2018-08-12T09:33:40.785Z,5.50
2018-08-12T09:35:52.250Z,6.03
2018-08-12T09:38:02.948Z,4.70
2018-08-12T09:40:16.104Z,5.70
2018-08-12T09:42:27.318Z,4.20
2018-08-12T09:44:38.520Z,4.87
2018-08-12T09:46:49.573Z,4.80
2018-08-12T09:49:00.943Z,4.63
2018-08-12T09:51:12.235Z,5.30
2018-08-12T09:53:23.749Z,5.30
2018-08-12T09:55:34.992Z,4.50
2018-08-12T09:57:46.097Z,5.00
2018-08-12T09:59:57.179Z,4.30
2018-08-12T10:02:08.132Z,4.20
2018-08-12T10:04:19.354Z,4.67
2018-08-12T10:06:30.708Z,5.83
2018-08-12T10:08:43.055Z,4.10
2018-08-12T10:10:54.332Z,4.00
2018-08-12T10:13:05.505Z,4.50
2018-08-12T10:15:17.277Z,3.87
2018-08-12T10:17:28.505Z,3.80
2018-08-12T10:19:39.987Z,4.53
2018-08-12T10:21:51.591Z,4.07
2018-08-12T10:24:02.901Z,4.93
2018-08-12T10:26:14.303Z,4.30
2018-08-12T10:28:25.639Z,4.13
2018-08-12T10:30:37.014Z,4.33
2018-08-12T10:32:48.368Z,6.63
2018-08-12T10:34:59.519Z,4.03
2018-08-12T10:37:10.528Z,5.50
2018-08-12T10:39:21.757Z,4.40
2018-08-12T10:41:32.890Z,4.77
2018-08-12T10:43:43.823Z,4.40
2018-08-12T10:45:55.205Z,4.30
2018-08-12T10:48:06.598Z,4.80
2018-08-12T10:50:18.747Z,4.60
2018-08-12T10:52:30.014Z,5.00
2018-08-12T10:54:41.024Z,6.10
2018-08-12T10:56:52.482Z,5.13
2018-08-12T10:59:03.621Z,4.03
2018-08-12T11:01:15.406Z,4.30
2018-08-12T11:03:28.060Z,5.33
2018-08-12T11:05:39.012Z,4.03
2018-08-12T11:07:53.121Z,4.30
2018-08-12T11:10:04.481Z,3.50
2018-08-12T11:12:16.017Z,4.00
2018-08-12T11:14:27.103Z,3.40
2018-08-12T11:16:38.055Z,3.60
2018-08-12T11:18:49.491Z,3.47
2018-08-12T11:21:00.622Z,3.00
2018-08-12T11:23:11.639Z,3.43
2018-08-12T11:25:23.006Z,4.13
2018-08-12T11:27:34.175Z,3.40
2018-08-12T11:29:45.583Z,3.50
2018-08-12T11:31:56.746Z,4.93
2018-08-12T11:34:07.861Z,3.50
2018-08-12T11:36:19.377Z,3.60
2018-08-12T11:38:30.632Z,3.40
2018-08-12T11:40:42.123Z,4.63
2018-08-12T11:42:53.041Z,3.80
2018-08-12T11:45:04.247Z,3.60
2018-08-12T11:47:15.580Z,3.93
2018-08-12T11:49:26.733Z,4.80
2018-08-12T11:51:37.951Z,5.37
2018-08-12T11:53:49.199Z,4.20
2018-08-12T11:56:00.174Z,4.20
2018-08-12T11:58:11.515Z,4.80
2018-08-12T12:00:23.341Z,4.33
2018-08-12T12:02:34.801Z,4.60
2018-08-12T12:04:46.176Z,4.37
2018-08-12T12:06:57.345Z,3.40
2018-08-12T12:09:08.345Z,3.70
2018-08-12T12:11:19.929Z,4.10
2018-08-12T12:13:30.969Z,4.37
2018-08-12T12:15:42.061Z,4.40
2018-08-12T12:17:53.566Z,4.20
2018-08-12T12:20:04.926Z,3.60
2018-08-12T12:22:16.160Z,4.20
2018-08-12T12:24:27.428Z,3.67
2018-08-12T12:26:38.579Z,3.07
2018-08-12T12:28:49.995Z,4.80
2018-08-12T12:31:01.148Z,4.73
2018-08-12T12:33:12.096Z,5.77
2018-08-12T12:35:23.407Z,8.80
2018-08-12T12:37:34.848Z,4.17
2018-08-12T12:39:46.002Z,6.70
2018-08-12T12:41:57.377Z,5.70
2018-08-12T12:44:08.705Z,5.50
2018-08-12T12:46:19.830Z,6.13
2018-08-12T12:48:31.153Z,5.70
2018-08-12T12:50:42.521Z,6.23
2018-08-12T12:52:54.389Z,6.17
2018-08-12T12:55:05.814Z,7.17
2018-08-12T12:57:16.855Z,8.47
2018-08-12T12:59:28.005Z,8.17
2018-08-12T13:01:39.330Z,7.50
2018-08-12T13:03:51.029Z,8.30
2018-08-12T13:06:02.152Z,8.53
2018-08-12T13:08:13.488Z,8.57
2018-08-12T13:10:24.744Z,9.50
2018-08-12T13:12:35.871Z,13.70
2018-08-12T13:14:47.146Z,10.37
2018-08-12T13:16:58.237Z,12.37
2018-08-12T13:19:09.267Z,13.63
2018-08-12T13:21:20.583Z,14.33
2018-08-12T13:23:31.910Z,34.00
2018-08-12T13:25:43.289Z,39.27
2018-08-12T13:27:54.616Z,60.50
2018-08-12T13:30:05.794Z,34.73
2018-08-12T13:32:16.644Z,36.42
2018-08-12T13:34:28.256Z,31.43
2018-08-12T13:36:39.419Z,33.03
2018-08-12T13:38:50.801Z,31.63
2018-08-12T13:41:02.330Z,32.23
2018-08-12T13:43:13.529Z,32.23
2018-08-12T13:45:24.679Z,30.60
2018-08-12T13:47:35.636Z,31.70
2018-08-12T13:49:46.744Z,30.50
2018-08-12T13:51:58.051Z,30.30
2018-08-12T13:54:08.992Z,30.63
2018-08-12T13:56:21.426Z,28.07
2018-08-12T13:58:32.696Z,27.43
2018-08-12T14:00:44.125Z,27.27
2018-08-12T14:02:55.513Z,34.63
2018-08-12T14:05:06.681Z,36.07
2018-08-12T14:07:17.995Z,138.20
2018-08-12T14:09:29.315Z,65.20
2018-08-12T14:11:40.993Z,53.30
2018-08-12T14:13:52.083Z,42.77
2018-08-12T14:16:03.296Z,53.07
2018-08-12T14:18:14.332Z,40.40
2018-08-12T14:20:25.590Z,29.03
2018-08-12T14:22:36.746Z,36.83
2018-08-12T14:24:47.880Z,40.73
2018-08-12T14:26:58.982Z,33.63
2018-08-12T14:29:10.233Z,27.40
2018-08-12T14:31:21.708Z,27.20
2018-08-12T14:33:33.973Z,30.23
2018-08-12T14:35:45.492Z,26.93
2018-08-12T14:37:56.858Z,27.63
2018-08-12T14:40:08.173Z,32.10
2018-08-12T14:42:19.523Z,23.90
2018-08-12T14:44:30.708Z,24.40
2018-08-12T14:46:41.888Z,25.90
2018-08-12T14:48:52.969Z,22.13
2018-08-12T14:51:04.183Z,22.30
2018-08-12T14:53:16.485Z,21.77
2018-08-12T14:55:27.768Z,22.30
2018-08-12T14:57:39.070Z,19.20
2018-08-12T14:59:50.343Z,20.47
2018-08-12T15:02:01.871Z,29.37
2018-08-12T15:04:12.962Z,34.97
2018-08-12T15:06:24.668Z,30.47
2018-08-12T15:08:35.805Z,29.53
2018-08-12T15:10:47.116Z,29.93
2018-08-12T15:12:58.606Z,35.43
2018-08-12T15:15:10.328Z,29.63
2018-08-12T15:17:21.595Z,31.33
2018-08-12T15:19:36.077Z,33.53
2018-08-12T15:21:47.321Z,31.40
2018-08-12T15:23:58.594Z,29.77
2018-08-12T15:26:09.940Z,41.87
2018-08-12T15:28:21.298Z,33.83
2018-08-12T15:30:37.123Z,29.97
2018-08-12T15:32:48.622Z,29.40
2018-08-12T15:35:00.107Z,24.43
2018-08-12T15:37:11.192Z,26.40
2018-08-12T15:39:22.490Z,22.27
2018-08-12T15:41:33.679Z,26.00
2018-08-12T15:43:45.139Z,24.57
2018-08-12T15:45:56.396Z,24.80
2018-08-12T15:48:07.732Z,26.30
2018-08-12T15:50:19.132Z,23.20
2018-08-12T15:52:30.604Z,24.07
2018-08-12T15:54:41.903Z,22.33
2018-08-12T15:56:54.472Z,21.30
2018-08-12T15:59:06.316Z,24.60
2018-08-12T16:01:17.813Z,23.87
2018-08-12T16:03:32.905Z,24.97
2018-08-12T16:05:44.401Z,25.37
2018-08-12T16:07:56.409Z,19.93
2018-08-12T16:10:07.470Z,21.43
2018-08-12T16:12:19.048Z,21.63
2018-08-12T16:14:30.472Z,21.37
2018-08-12T16:16:41.503Z,24.93
2018-08-12T16:18:54.164Z,22.57
2018-08-12T16:21:06.653Z,19.63
2018-08-12T16:23:18.033Z,22.80
2018-08-12T16:25:33.423Z,21.17
2018-08-12T16:27:44.885Z,18.10
2018-08-12T16:29:56.109Z,20.20
2018-08-12T16:32:07.385Z,19.80
2018-08-12T16:34:18.612Z,19.73
2018-08-12T16:36:30.231Z,19.80
2018-08-12T16:38:41.482Z,23.33
2018-08-12T16:40:53.001Z,21.03
2018-08-12T16:43:04.327Z,23.30
2018-08-12T16:45:16.266Z,23.43
2018-08-12T16:47:27.530Z,22.60
2018-08-12T16:49:40.205Z,23.40
2018-08-12T16:51:52.199Z,25.13
2018-08-12T16:54:06.549Z,24.30
2018-08-12T16:56:17.869Z,23.97
2018-08-12T16:58:28.841Z,20.77
2018-08-12T17:00:40.227Z,19.83
2018-08-12T17:02:51.389Z,16.03
2018-08-12T17:05:02.656Z,19.10
2018-08-12T17:07:13.992Z,17.90
2018-08-12T17:09:25.953Z,18.57
2018-08-12T17:11:37.356Z,18.13
2018-08-12T17:13:48.716Z,17.50
2018-08-12T17:15:59.877Z,12.17
2018-08-12T17:18:11.059Z,10.20
2018-08-12T17:20:23.120Z,10.03
2018-08-12T17:22:34.472Z,11.23
2018-08-12T17:24:45.551Z,9.30
2018-08-12T17:26:57.052Z,9.97
2018-08-12T17:29:07.991Z,9.23
2018-08-12T17:31:20.623Z,14.53
2018-08-12T17:33:31.627Z,9.57
2018-08-12T17:35:42.970Z,11.33
2018-08-12T17:37:54.465Z,9.93
2018-08-12T17:40:05.810Z,13.70
2018-08-12T17:42:16.910Z,9.60
2018-08-12T17:44:28.307Z,9.40
2018-08-12T17:46:39.616Z,12.03
2018-08-12T17:48:51.074Z,8.80
2018-08-12T17:51:02.483Z,11.47
2018-08-12T17:53:13.686Z,8.00
2018-08-12T17:55:25.655Z,8.80
2018-08-12T17:57:37.587Z,11.70
2018-08-12T17:59:48.959Z,11.57
2018-08-12T18:02:00.451Z,14.93
2018-08-12T18:04:11.743Z,17.70
2018-08-12T18:06:23.100Z,13.60
2018-08-12T18:08:34.277Z,20.23
2018-08-12T18:10:45.847Z,21.50
2018-08-12T18:12:56.967Z,15.13
2018-08-12T18:15:08.030Z,12.50
2018-08-12T18:17:19.428Z,12.40
2018-08-12T18:19:30.653Z,15.10
2018-08-12T18:21:41.951Z,19.07
2018-08-12T18:23:53.377Z,21.33
2018-08-12T18:26:04.619Z,22.13
2018-08-12T18:28:15.871Z,20.27
2018-08-12T18:30:27.209Z,21.57
2018-08-12T18:32:38.375Z,25.30
2018-08-12T18:34:49.517Z,18.40
2018-08-12T18:37:01.027Z,18.10
2018-08-12T18:39:13.545Z,12.60
2018-08-12T18:41:24.899Z,20.77
2018-08-12T18:43:36.296Z,20.10
2018-08-12T18:45:47.336Z,20.83
2018-08-12T18:47:58.681Z,16.57
2018-08-12T18:50:09.918Z,13.17
2018-08-12T18:52:21.211Z,11.40
2018-08-12T18:54:32.470Z,11.80
2018-08-12T18:56:43.626Z,15.03
2018-08-12T18:58:54.909Z,11.90
2018-08-12T19:01:06.064Z,10.87
2018-08-12T19:03:17.515Z,8.87
2018-08-12T19:05:28.785Z,8.23
2018-08-12T19:07:40.089Z,9.37
2018-08-12T19:09:51.321Z,6.63
2018-08-12T19:12:03.317Z,6.80
2018-08-12T19:14:14.542Z,6.70
2018-08-12T19:16:26.116Z,7.03
2018-08-12T19:18:37.167Z,6.23
2018-08-12T19:20:48.453Z,7.20
2018-08-12T19:22:59.549Z,6.33
2018-08-12T19:25:11.074Z,7.37
2018-08-12T19:27:22.387Z,6.90
2018-08-12T19:29:33.657Z,8.40
2018-08-12T19:31:45.021Z,10.00
2018-08-12T19:33:56.417Z,11.30
2018-08-12T19:36:07.462Z,11.60
2018-08-12T19:38:18.647Z,11.53
2018-08-12T19:40:29.842Z,15.17
2018-08-12T19:42:41.404Z,15.90
2018-08-12T19:44:52.537Z,16.47
2018-08-12T19:47:03.910Z,16.07
2018-08-12T19:49:15.202Z,13.40
2018-08-12T19:51:26.433Z,10.40
2018-08-12T19:53:37.668Z,9.33
2018-08-12T19:55:49.502Z,9.83
2018-08-12T19:58:01.900Z,12.77
2018-08-12T20:00:13.617Z,10.77
2018-08-12T20:02:24.828Z,12.37
2018-08-12T20:04:36.177Z,8.67
2018-08-12T20:06:47.404Z,11.13
2018-08-12T20:08:58.930Z,12.30
2018-08-12T20:11:11.030Z,12.50
2018-08-12T20:13:22.222Z,10.53
2018-08-12T20:15:33.625Z,10.00
2018-08-12T20:17:44.645Z,7.77
2018-08-12T20:19:55.805Z,6.47
2018-08-12T20:22:07.327Z,7.13
2018-08-12T20:24:18.559Z,7.60
2018-08-12T20:26:29.637Z,7.40
2018-08-12T20:28:41.021Z,6.00
2018-08-12T20:30:51.992Z,6.07
2018-08-12T20:33:03.487Z,6.13
2018-08-12T20:35:14.812Z,6.00
2018-08-12T20:37:25.966Z,8.00
2018-08-12T20:39:37.326Z,5.90
2018-08-12T20:41:48.649Z,10.87
2018-08-12T20:44:00.120Z,10.00
2018-08-12T20:46:11.702Z,9.73
2018-08-12T20:48:23.044Z,9.37
2018-08-12T20:50:34.506Z,9.33
2018-08-12T20:52:45.705Z,10.77
2018-08-12T20:54:57.023Z,8.73
2018-08-12T20:57:09.291Z,9.37
2018-08-12T20:59:20.511Z,6.43
2018-08-12T21:01:32.078Z,6.07
2018-08-12T21:03:44.041Z,6.30
2018-08-12T21:05:55.263Z,6.50
2018-08-12T21:08:06.777Z,6.50
2018-08-12T21:10:17.881Z,10.30
2018-08-12T21:12:29.292Z,7.90
2018-08-12T21:14:41.706Z,9.33
2018-08-12T21:16:52.898Z,8.37
2018-08-12T21:19:04.006Z,8.27
2018-08-12T21:21:15.530Z,6.27
2018-08-12T21:23:27.936Z,9.50
2018-08-12T21:25:38.967Z,8.67
2018-08-12T21:27:50.700Z,9.60
2018-08-12T21:30:02.358Z,9.60
2018-08-12T21:32:14.385Z,7.93
2018-08-12T21:34:26.096Z,8.97
2018-08-12T21:36:38.332Z,8.17
2018-08-12T21:38:50.037Z,8.47
2018-08-12T21:41:01.521Z,10.77
2018-08-12T21:43:13.243Z,6.47
2018-08-12T21:45:25.030Z,9.43
2018-08-12T21:47:37.369Z,6.30
2018-08-12T21:49:49.305Z,9.07
2018-08-12T21:52:01.072Z,7.53
2018-08-12T21:54:12.782Z,8.03
2018-08-12T21:56:24.382Z,7.10
2018-08-12T21:58:41.192Z,5.57
2018-08-12T22:00:54.039Z,7.00
2018-08-12T22:03:05.887Z,6.87
2018-08-12T22:05:17.708Z,6.00
2018-08-12T22:07:29.314Z,5.80
2018-08-12T22:09:40.926Z,6.80
2018-08-12T22:11:53.091Z,6.40
2018-08-12T22:14:05.350Z,6.63
2018-08-12T22:16:18.044Z,7.60
2018-08-12T22:18:29.442Z,6.83
2018-08-12T22:20:41.424Z,5.67
2018-08-12T22:22:53.418Z,6.60
2018-08-12T22:25:06.165Z,7.17
2018-08-12T22:27:17.824Z,6.27
2018-08-12T22:29:29.622Z,8.10
2018-08-12T22:31:40.920Z,9.30
2018-08-12T22:33:52.666Z,10.27
2018-08-12T22:36:04.287Z,12.53
2018-08-12T22:38:15.581Z,12.37
2018-08-12T22:40:27.982Z,12.47
2018-08-12T22:42:39.998Z,13.83
2018-08-12T22:44:51.628Z,16.23
2018-08-12T22:47:03.720Z,14.97
2018-08-12T22:49:15.569Z,16.03
2018-08-12T22:51:26.966Z,15.07
2018-08-12T22:53:38.096Z,15.40
2018-08-12T22:55:49.442Z,16.73
2018-08-12T22:58:00.728Z,15.30
2018-08-12T23:00:13.540Z,15.80
2018-08-12T23:02:25.386Z,16.33
2018-08-12T23:04:37.241Z,16.57
2018-08-12T23:06:49.231Z,16.23
2018-08-12T23:09:00.780Z,24.60
2018-08-12T23:11:14.033Z,226.37
2018-08-12T23:13:26.092Z,257.87
2018-08-12T23:15:38.098Z,458.25
2018-08-12T23:17:50.553Z,107.80
2018-08-12T23:20:02.412Z,117.23
2018-08-12T23:22:14.013Z,111.07
2018-08-12T23:24:25.885Z,102.60
2018-08-12T23:26:37.487Z,97.33
2018-08-12T23:28:49.159Z,92.30
2018-08-12T23:31:02.301Z,91.67
2018-08-12T23:33:14.436Z,86.57
2018-08-12T23:35:26.722Z,81.97
2018-08-12T23:37:38.729Z,75.77
2018-08-12T23:39:50.420Z,68.97
2018-08-12T23:42:02.876Z,55.70
2018-08-12T23:44:16.496Z,57.40
2018-08-12T23:46:28.082Z,52.50
2018-08-12T23:48:40.828Z,44.70
2018-08-12T23:50:53.701Z,40.67
2018-08-12T23:53:06.366Z,40.70
2018-08-12T23:55:18.671Z,38.47
2018-08-12T23:57:30.951Z,30.53
2018-08-12T23:59:42.692Z,29.10
